Latest Weather Observations for Whyalla

IDS60801

Issued at 1:31 am CST Thursday 7 May 2015 (issued every 30 minutes, with the page automatically refreshed every 10 minutes)

About weather observations | Map of weather stations | Latest weather observations for SA | Other Formats
Station Details ID: 018120 Name: WHYALLA AERO Lat: -33.05 Lon: 137.52 Height: 6.5 m
Data from the previous 72 hours. | See also: Recent months at Whyalla
Date/Time
CST
Temp
°C
App
Temp
°C
Dew
Point
Rel
Hum
%
Delta-T
°C
Wind Press
QNH
hPa
Press
MSL
hPa
Rain
since 9 am
mm
Dir
 
Spd
km/h
Gust
km/h
Spd
kts
Gust
kts
07/01:30am 10.7 8.3 8.8 88 0.9 W 11 15 6 8 1024.8 1024.8 0.0
07/01:00am 10.1 8.1 8.5 90 0.8 WNW 9 13 5 7 1024.6 1024.6 0.0
07/12:30am 9.3 6.3 7.7 90 0.8 WNW 13 13 7 7 1024.6 1024.6 0.0
07/12:00am 9.6 7.0 7.7 88 0.9 WNW 11 13 6 7 1024.6 1024.6 0.0
 
Date/Time
CST
Temp
°C
App
Temp
°C
Dew
Point
Rel
Hum
%
Delta-T
°C
Wind Press
QNH
hPa
Press
MSL
hPa
Rain
since 9 am
mm
Dir
 
Spd
km/h
Gust
km/h
Spd
kts
Gust
kts
06/11:30pm 10.7 8.3 8.5 86 1.1 W 11 13 6 7 1024.6 1024.6 0.0
06/11:00pm 11.0 8.9 8.4 84 1.3 WNW 9 9 5 5 1024.6 1024.6 0.0
06/10:30pm 12.1 10.5 8.8 80 1.6 W 7 9 4 5 1024.6 1024.6 0.0
06/10:00pm 13.4 10.9 9.6 78 1.9 WSW 13 19 7 10 1024.6 1024.6 0.0
06/09:30pm 13.9 11.7 9.3 74 2.3 SW 11 17 6 9 1024.3 1024.3 0.0
06/09:00pm 15.1 12.5 9.5 69 2.9 SW 13 17 7 9 1024.0 1024.0 0.0
06/08:30pm 15.3 13.2 9.7 69 2.9 SW 11 13 6 7 1023.8 1023.8 0.0
06/08:00pm 15.6 12.7 9.7 68 3.1 SW 15 20 8 11 1023.6 1023.6 0.0
06/07:30pm 15.7 13.2 10.9 73 2.5 SW 15 24 8 13 1023.3 1023.3 0.0
06/07:00pm 15.4 13.2 12.0 80 1.8 S 15 20 8 11 1022.8 1022.8 0.0
06/06:30pm 15.9 14.3 11.7 76 2.3 S 11 13 6 7 1022.4 1022.4 0.0
06/06:00pm 15.6 14.1 12.0 79 1.9 S 11 17 6 9 1022.0 1022.0 0.0
06/05:30pm 16.0 12.7 11.6 75 2.4 S 20 28 11 15 1021.6 1021.6 0.0
06/05:00pm 16.9 13.0 10.7 67 3.3 S 22 35 12 19 1021.4 1021.4 0.0
06/04:30pm 19.5 14.7 7.3 45 6.2 WSW 22 30 12 16 1021.0 1021.0 0.0
06/04:00pm 19.6 14.4 7.4 45 6.2 WSW 24 32 13 17 1020.9 1020.9 0.0
06/03:30pm 19.5 14.7 7.3 45 6.2 W 22 30 12 16 1020.9 1020.9 0.0
06/03:00pm 20.2 16.0 8.2 46 6.2 SW 20 32 11 17 1021.1 1021.1 0.0
06/02:30pm 18.8 13.4 7.9 49 5.6 SW 26 39 14 21 1021.2 1021.2 0.0
06/02:00pm 19.5 15.4 7.9 47 6.0 WSW 19 28 10 15 1021.2 1021.2 0.0
06/01:30pm 19.9 15.7 7.3 44 6.4 W 19 28 10 15 1021.1 1021.1 0.0
06/01:00pm 19.6 14.5 7.7 46 6.1 W 24 33 13 18 1021.4 1021.4 0.0
06/12:30pm 19.3 13.8 7.7 47 5.9 WSW 26 35 14 19 1021.8 1021.8 0.0
06/12:00pm 19.1 13.6 7.5 47 5.9 WSW 26 35 14 19 1022.0 1022.0 0.0
06/11:30am 18.7 14.0 7.8 49 5.5 W 22 30 12 16 1022.3 1022.3 0.0
06/11:00am 18.3 13.1 7.1 48 5.6 W 24 33 13 18 1022.4 1022.4 0.0
06/10:30am 18.3 13.1 7.4 49 5.5 W 24 33 13 18 1022.3 1022.3 0.0
06/10:00am 17.2 12.3 8.4 56 4.5 WNW 24 33 13 18 1022.4 1022.4 0.0
06/09:30am 16.1 11.6 8.6 61 3.8 WNW 22 28 12 15 1022.3 1022.3 0.0
06/09:00am 14.7 10.5 8.2 65 3.2 NW 20 26 11 14 1022.2 1022.2 0.0
06/08:30am 13.3 9.2 8.0 70 2.6 NW 19 24 10 13 1021.8 1021.8 0.0
06/08:00am 12.0 8.5 7.3 73 2.3 NW 15 19 8 10 1021.4 1021.4 0.0
06/07:30am 11.0 7.1 7.1 77 1.9 NW 17 20 9 11 1021.0 1021.0 0.0
06/07:00am 11.2 7.0 7.3 77 1.9 NW 19 24 10 13 1020.6 1020.6 0.0
06/06:30am 10.2 6.6 6.9 80 1.5 NNW 15 19 8 10 1020.5 1020.5 0.0
06/06:00am 9.5 5.8 6.4 81 1.4 NNW 15 17 8 9 1020.2 1020.2 0.0
06/05:30am 10.2 6.9 6.5 78 1.7 NW 13 15 7 8 1019.7 1019.7 0.0
06/05:00am 11.1 7.8 6.6 74 2.1 NW 13 15 7 8 1019.4 1019.4 0.0
06/04:30am 12.2 9.1 7.1 71 2.4 NW 13 17 7 9 1019.2 1019.2 0.0
06/04:00am 12.2 8.7 7.1 71 2.5 NW 15 19 8 10 1019.0 1019.0 0.0
06/03:30am 12.2 8.7 7.1 71 2.4 NW 15 19 8 10 1019.0 1019.0 0.0
06/03:00am 12.3 8.4 7.0 70 2.5 NW 17 20 9 11 1018.9 1018.9 0.0
06/02:30am 11.8 8.5 6.3 69 2.6 NW 13 15 7 8 1018.7 1018.7 0.0
06/02:00am 11.8 8.9 6.3 69 2.6 NW 11 15 6 8 1018.7 1018.7 0.0
06/01:30am 11.9 8.2 6.2 68 2.7 NW 15 19 8 10 1018.9 1018.9 0.0
06/01:00am 11.6 8.6 6.1 69 2.6 NW 11 13 6 7 1019.3 1019.3 0.0
06/12:30am 11.1 8.5 6.3 72 2.2 NW 9 13 5 7 1018.9 1018.9 0.0
06/12:00am 11.3 8.9 6.8 74 2.1 WNW 9 11 5 6 1018.9 1018.9 0.0
 
Date/Time
CST
Temp
°C
App
Temp
°C
Dew
Point
Rel
Hum
%
Delta-T
°C
Wind Press
QNH
hPa
Press
MSL
hPa
Rain
since 9 am
mm
Dir
 
Spd
km/h
Gust
km/h
Spd
kts
Gust
kts
05/11:30pm 10.9 8.0 6.3 73 2.1 WNW 11 15 6 8 1018.9 1018.9 0.0
05/11:00pm 11.5 8.0 5.6 67 2.7 W 13 17 7 9 1018.9 1018.9 0.0
05/10:30pm 10.0 6.7 4.6 69 2.4 WNW 11 13 6 7 1018.8 1018.8 0.0
05/10:00pm 10.2 6.1 4.4 67 2.6 WNW 15 17 8 9 1018.7 1018.7 0.0
05/09:30pm 10.7 7.0 4.6 66 2.7 W 13 15 7 8 1018.3 1018.3 0.0
05/09:00pm 10.3 6.8 3.3 62 3.0 WSW 11 13 6 7 1018.3 1018.3 0.0
05/08:30pm 11.3 8.1 3.3 58 3.5 W 9 13 5 7 1018.0 1018.0 0.0
05/08:00pm 12.3 9.2 3.5 55 3.9 WSW 9 11 5 6 1017.7 1017.7 0.0
05/07:30pm 13.1 9.6 3.5 52 4.3 W 11 15 6 8 1017.2 1017.2 0.0
05/07:00pm 14.2 9.2 3.7 49 4.8 WSW 19 28 10 15 1016.7 1016.7 0.0
05/06:30pm 14.8 9.9 4.2 49 4.9 WSW 19 28 10 15 1016.2 1016.2 0.0
05/06:00pm 14.9 10.2 3.4 46 5.2 WSW 17 24 9 13 1015.6 1015.6 0.0
05/05:30pm 15.1 10.7 5.0 51 4.7 W 17 22 9 12 1015.2 1015.2 0.0
05/05:00pm 15.8 10.3 5.7 51 4.8 WSW 24 33 13 18 1014.9 1014.9 0.0
05/04:30pm 16.5 10.5 3.6 42 6.0 W 24 35 13 19 1014.7 1014.7 0.0
05/04:00pm 17.3 9.8 4.3 42 6.1 WSW 33 46 18 25 1014.5 1014.5 0.0
05/03:30pm 17.4 9.9 3.3 39 6.5 WSW 32 46 17 25 1014.1 1014.1 0.0
05/03:01pm 17.6 10.4 2.8 37 6.8 WSW 30 48 16 26 1013.8 1013.8 0.0
05/03:00pm 17.6 10.7 2.8 37 6.8 WSW 28 43 15 23 1013.8 1013.8 0.0
05/02:30pm 17.9 9.8 3.0 37 6.9 W 35 46 19 25 1013.7 1013.7 0.0
05/02:00pm 18.1 10.7 2.0 34 7.3 WSW 30 48 16 26 1013.4 1013.4 0.0
05/01:41pm 17.8 11.0 2.9 37 6.9 WSW 28 46 15 25 1013.3 1013.3 0.0
05/01:30pm 17.7 11.0 3.9 40 6.5 WSW 28 39 15 21 1013.2 1013.2 0.0
05/01:00pm 16.7 9.4 4.7 45 5.7 WSW 32 44 17 24 1013.5 1013.5 0.0
05/12:30pm 16.8 9.9 4.8 45 5.7 WSW 30 44 16 24 1013.8 1013.8 0.0
05/12:00pm 16.4 9.2 6.0 50 5.0 WSW 33 44 18 24 1014.0 1014.0 0.0
05/11:30am 16.2 8.7 6.3 52 4.8 WSW 35 57 19 31 1013.8 1013.8 0.0
05/11:18am 14.8 8.5 7.4 61 3.6 WSW 30 48 16 26 1014.0 1014.0 0.0
05/11:00am 14.1 6.7 8.5 69 2.8 SW 37 50 20 27 1014.0 1014.0 0.0
05/10:51am 15.3 7.2 7.1 58 4.0 WSW 39 52 21 28 1013.7 1013.7 0.0
05/10:34am 17.1 9.0 5.4 46 5.6 W 37 56 20 30 1013.4 1013.4 0.0
05/10:30am 16.6 8.2 5.6 48 5.3 W 39 56 21 30 1013.4 1013.4 0.0
05/10:04am 16.2 8.2 5.8 50 5.0 W 37 56 20 30 1013.4 1013.4 0.0
05/10:00am 16.3 8.7 5.9 50 5.0 W 35 46 19 25 1013.2 1013.2 0.0
05/09:32am 16.1 9.6 6.3 52 4.8 W 30 50 16 27 1013.0 1013.0 0.0
05/09:30am 16.2 10.0 6.3 52 4.8 W 28 39 15 21 1013.0 1013.0 0.0
05/09:00am 15.8 8.9 6.3 53 4.6 W 32 50 17 27 1012.9 1012.9 0.0
05/08:53am 15.6 9.5 6.6 55 4.4 W 28 50 15 27 1012.7 1012.7 0.0
05/08:30am 15.2 8.9 7.2 59 3.9 WNW 30 41 16 22 1012.1 1012.1 0.0
05/08:05am 15.0 9.1 7.3 60 3.8 WNW 28 46 15 25 1011.7 1011.7 0.0
05/08:00am 15.0 9.1 7.3 60 3.8 WNW 28 43 15 23 1011.5 1011.5 0.0
05/07:30am 14.8 8.8 6.9 59 3.9 WNW 28 39 15 21 1011.1 1011.1 0.0
05/07:00am 13.6 9.6 6.5 62 3.4 NW 17 24 9 13 1010.8 1010.8 0.0
05/06:30am 13.3 9.6 6.2 62 3.4 NW 15 28 8 15 1010.5 1010.5 0.0
05/06:00am 13.2 9.0 5.6 60 3.6 NW 17 28 9 15 1010.2 1010.2 0.0
05/05:30am 13.4 9.6 5.6 59 3.7 NW 15 20 8 11 1010.2 1010.2 0.0
05/05:00am 13.8 9.6 5.9 59 3.7 NW 17 30 9 16 1010.0 1010.0 0.0
05/04:30am 14.1 9.0 6.0 58 3.9 NW 22 30 12 16 1009.8 1009.8 0.0
05/04:00am 14.6 8.7 5.7 55 4.2 WNW 26 35 14 19 1009.5 1009.5 0.0
05/03:30am 14.9 8.2 5.7 54 4.4 WNW 30 41 16 22 1009.3 1009.3 0.0
05/03:00am 15.3 8.3 5.8 53 4.6 WNW 32 46 17 25 1009.4 1009.4 0.0
05/02:38am 15.7 8.7 5.9 52 4.7 WNW 32 56 17 30 1009.3 1009.3 0.0
05/02:30am 15.8 8.8 6.0 52 4.7 W 32 44 17 24 1009.5 1009.5 0.0
05/02:00am 16.3 9.4 6.4 52 4.8 WNW 32 50 17 27 1009.4 1009.4 0.0
05/01:34am 16.5 9.7 6.9 53 4.7 W 32 50 17 27 1009.5 1009.5 0.0
05/01:30am 16.5 9.6 7.2 54 4.6 WNW 33 48 18 26 1009.5 1009.5 0.0
05/01:03am 17.3 11.2 6.8 50 5.2 WNW 28 52 15 28 1009.5 1009.5 0.0
05/01:00am 17.5 11.5 7.0 50 5.2 WNW 28 43 15 23 1009.7 1009.7 0.0
05/12:30am 17.7 10.2 6.3 47 5.6 W 35 63 19 34 1009.4 1009.4 0.0
05/12:10am 18.4 11.7 5.6 43 6.2 W 30 48 16 26 1009.3 1009.3 0.0
05/12:00am 18.5 12.3 6.0 44 6.2 W 28 37 15 20 1009.2 1009.2 0.0
 
Date/Time
CST
Temp
°C
App
Temp
°C
Dew
Point
Rel
Hum
%
Delta-T
°C
Wind Press
QNH
hPa
Press
MSL
hPa
Rain
since 9 am
mm
Dir
 
Spd
km/h
Gust
km/h
Spd
kts
Gust
kts
04/11:30pm 18.9 13.0 7.4 47 5.8 W 28 41 15 22 1009.1 1009.1 0.0
04/11:00pm 18.9 14.2 9.4 54 5.0 W 24 37 13 20 1009.1 1009.1 0.0
04/10:30pm 19.6 14.0 10.3 55 5.0 W 30 41 16 22 1008.8 1008.8 0.0
04/10:02pm 20.5 14.2 9.1 48 6.0 W 32 54 17 29 1008.4 1008.4 0.0
04/10:00pm 20.7 14.7 8.7 46 6.3 W 30 43 16 23 1008.4 1008.4 0.0
04/09:30pm 21.5 16.5 8.1 42 7.0 W 24 33 13 18 1007.7 1007.7 0.0
04/09:00pm 22.7 15.8 7.3 37 8.0 W 33 54 18 29 1006.7 1006.7 0.0
04/08:39pm 25.1 18.1 6.8 31 9.5 WNW 33 52 18 28 1006.1 1006.1 0.0
04/08:30pm 25.3 18.3 7.0 31 9.6 WNW 33 48 18 26 1006.2 1006.2 0.0
04/08:05pm 25.9 19.4 6.5 29 10.1 WNW 30 48 16 26 1005.7 1005.7 0.0
04/08:00pm 25.8 19.8 5.4 27 10.4 WNW 26 32 14 17 1005.7 1005.7 0.0
04/07:30pm 25.8 20.9 4.9 26 10.6 NW 20 26 11 14 1005.3 1005.3 0.0
04/07:00pm 26.3 19.7 4.1 24 11.1 NNW 28 39 15 21 1005.0 1005.0 0.0
04/06:30pm 27.0 19.5 1.4 19 12.3 NW 30 39 16 21 1005.0 1005.0 0.0
04/06:00pm 27.4 20.5 0.2 17 12.8 NNW 26 37 14 20 1004.8 1004.8 0.0
04/05:30pm 27.9 19.6 -0.2 16 13.2 NNW 33 43 18 23 1004.7 1004.7 0.0
04/05:00pm 28.0 19.4 -0.1 16 13.2 NNW 35 48 19 26 1004.8 1004.8 0.0
04/04:30pm 28.4 19.7 -0.7 15 13.6 NNW 35 48 19 26 1004.5 1004.5 0.0
04/04:12pm 28.5 20.7 -0.6 15 13.6 NNW 30 48 16 26 1004.5 1004.5 0.0
04/04:00pm 28.7 19.1 -1.4 14 13.9 N 39 56 21 30 1004.6 1004.6 0.0
04/03:51pm 28.8 19.6 -1.3 14 13.9 NNW 37 56 20 30 1004.7 1004.7 0.0
04/03:30pm 29.0 19.4 -1.2 14 14.1 N 39 52 21 28 1004.8 1004.8 0.0
04/03:00pm 29.3 18.9 -1.9 13 14.4 N 43 57 23 31 1004.9 1004.9 0.0
04/02:32pm 29.1 19.6 -1.1 14 14.0 N 39 57 21 31 1005.0 1005.0 0.0
04/02:30pm 29.5 20.0 -0.8 14 14.3 N 39 54 21 29 1005.1 1005.1 0.0
04/02:26pm 29.3 19.4 -0.9 14 14.1 N 41 59 22 32 1005.0 1005.0 0.0
04/02:00pm 28.9 18.4 -1.2 14 14.0 N 44 59 24 32 1005.3 1005.3 0.0
04/01:31pm 28.5 17.7 -0.6 15 13.6 N 46 65 25 35 1005.8 1005.8 0.0
04/01:30pm 28.2 17.0 -0.9 15 13.5 N 48 65 26 35 1005.8 1005.8 0.0
04/01:07pm 27.3 16.1 -0.7 16 12.9 N 48 67 26 36 1006.6 1006.6 0.0
04/01:00pm 27.0 15.0 -0.9 16 12.8 N 52 69 28 37 1006.8 1006.8 0.0
04/12:30pm 27.7 16.2 -0.4 16 13.1 NNW 50 69 27 37 1007.5 1007.5 0.0
04/12:08pm 27.0 16.8 0.7 18 12.4 N 44 63 24 34 1007.9 1007.9 0.0
04/12:00pm 27.4 16.8 1.0 18 12.6 N 46 59 25 32 1008.4 1008.4 0.0
04/11:39am 26.4 16.2 0.9 19 12.1 NNW 44 67 24 36 1009.3 1009.3 0.0
04/11:30am 26.1 15.1 0.7 19 12.0 NNW 48 63 26 34 1009.5 1009.5 0.0
04/11:06am 25.7 15.6 0.4 19 11.8 N 43 61 23 33 1009.8 1009.8 0.0
04/11:00am 25.5 16.4 1.6 21 11.4 N 39 54 21 29 1010.0 1010.0 0.0
04/10:43am 25.3 15.5 2.1 22 11.1 N 43 61 23 33 1009.9 1009.9 0.0
04/10:30am 24.4 13.9 1.3 22 10.9 N 46 61 25 33 1009.9 1009.9 0.0
04/10:13am 23.9 15.5 1.5 23 10.5 N 35 54 19 29 1009.9 1009.9 0.0
04/10:00am 23.3 13.8 1.6 24 10.2 N 41 56 22 30 1010.0 1010.0 0.0
04/09:46am 22.5 14.1 1.5 25 9.7 N 35 54 19 29 1010.2 1010.2 0.0
04/09:30am 22.2 13.1 1.8 26 9.5 N 39 56 21 30 1010.4 1010.4 0.0
04/09:22am 22.0 13.6 1.6 26 9.4 N 35 56 19 30 1010.5 1010.5 0.0
04/09:00am 20.3 13.0 2.2 30 8.4 N 30 41 16 22 1010.8 1010.8 0.0
04/08:30am 19.1 12.5 2.0 32 7.8 N 26 35 14 19 1011.3 1011.3 0.0
04/08:00am 17.9 10.6 2.2 35 7.1 N 30 39 16 21 1011.2 1011.2 0.0
04/07:30am 16.5 11.4 2.9 40 6.2 N 19 32 10 17 1011.1 1011.1 0.0
04/07:00am 12.8 10.1 3.5 53 4.2 NNW 7 11 4 6 1011.5 1011.5 0.0
04/06:30am 14.6 11.1 3.7 48 5.0 N 11 13 6 7 1011.6 1011.6 0.0
04/06:00am 14.2 11.2 3.9 50 4.7 NNE 9 11 5 6 1011.6 1011.6 0.0
04/05:30am 14.7 10.9 4.1 49 4.9 N 13 15 7 8 1011.8 1011.8 0.0
04/05:00am 16.1 11.3 4.8 47 5.3 N 19 26 10 14 1012.1 1012.1 0.0
04/04:30am 15.0 11.1 5.2 52 4.6 N 15 20 8 11 1012.2 1012.2 0.0
04/04:00am 10.7 7.6 5.7 71 2.3 NNW 11 13 6 7 1012.2 1012.2 0.0
04/03:30am 10.9 7.9 5.9 71 2.3 NNW 11 15 6 8 1012.4 1012.4 0.0
04/03:00am 10.6 7.6 6.2 74 2.0 NW 11 13 6 7 1012.7 1012.7 0.0
04/02:30am 10.8 7.2 6.6 75 2.0 NW 15 17 8 9 1013.1 1013.1 0.0
04/02:00am 10.9 7.3 6.6 75 2.0 WNW 15 19 8 10 1013.4 1013.4 0.0

Other Formats:

Comma delimited format used in spreadsheet applications
http://www.bom.gov.au/fwo/IDS60801/IDS60801.95664.axf

JavaScript Object Notation format (JSON) in row-major order
http://www.bom.gov.au/fwo/IDS60801/IDS60801.95664.json